Morehead-Rowan County Clyde A Thomas Regional (SYM)

 

Airport Diagram
No Airport Diagram Available
Current Weather/Forecast (IFR Conditions)
METAR KSYM 280355Z AUTO 34010KT 1 3/4SM -SN SCT005 BKN009 OVC013 M02/M03 A3026 RMK AO2
TAF KSYM 280320Z 2803/2824 34009KT 1 1/2SM -SHSN BR OVC007 FM280600 35010KT P6SM VCSH BKN015 FM280900 35008KT P6SM BKN035

Airport Information

All Charts
General
Chart Name View
TAKEOFF MINIMUMS
ALTERNATE MINIMUMS
TAKEOFF MINIMUMS
ALTERNATE MINIMUMS

Approaches
Chart Name Download
RNAV (GPS) RWY 02
RNAV (GPS) RWY 20
RNAV (GPS) RWY 02
RNAV (GPS) RWY 20


Airport Statistics
Departures Arrivals Local
All Collected Stats since June 2016: 1 1 0
2021 Stats: 0 0 0
January Stats: 0 0 0

Inbound Traffic (Arrivals) - 0

No inbound traffic.


Outbound Traffic (Departures) - 0

No outbound traffic.


Local Traffic (Pattern) - 0

No local traffic.